createdAt,value
2019-04-03T00:00:56.080Z,992.57
2019-04-03T00:03:37.117Z,992.56
2019-04-03T00:04:35.994Z,992.58
2019-04-03T00:05:35.380Z,992.56
2019-04-03T00:06:35.304Z,992.63
2019-04-03T00:09:24.490Z,992.56
2019-04-03T00:10:24.801Z,992.61
2019-04-03T00:11:24.101Z,992.6
2019-04-03T00:12:22.894Z,992.61
2019-04-03T00:17:45.914Z,992.6
2019-04-03T00:20:25.409Z,992.66
2019-04-03T00:21:24.392Z,992.6
2019-04-03T00:22:23.900Z,992.64
2019-04-03T00:23:22.935Z,992.62
2019-04-03T00:26:45.083Z,992.66
2019-04-03T00:27:43.829Z,992.71
2019-04-03T00:28:42.875Z,992.71
2019-04-03T00:29:41.746Z,992.72
2019-04-03T00:30:40.980Z,992.69
2019-04-03T00:31:45.314Z,992.7
2019-04-03T00:32:44.169Z,992.68
2019-04-03T00:33:42.947Z,992.59
2019-04-03T00:34:41.836Z,992.59
2019-04-03T00:35:40.661Z,992.58
2019-04-03T00:36:39.454Z,992.63
2019-04-03T00:37:38.294Z,992.59
2019-04-03T00:38:37.125Z,992.61
2019-04-03T00:39:36.003Z,992.63
2019-04-03T00:40:34.891Z,992.65
2019-04-03T00:41:33.676Z,992.62
2019-04-03T00:42:32.470Z,992.63
2019-04-03T00:43:31.261Z,992.67
2019-04-03T00:44:30.203Z,992.63
2019-04-03T00:45:29.153Z,992.69
2019-04-03T00:46:27.853Z,992.64
2019-04-03T00:47:26.814Z,992.67
2019-04-03T00:48:26.098Z,992.67
2019-04-03T00:49:26.017Z,992.67
2019-04-03T00:50:23.433Z,992.66
2019-04-03T00:51:22.116Z,992.69
2019-04-03T00:52:21.055Z,992.71
2019-04-03T00:53:19.726Z,992.67
2019-04-03T00:54:18.518Z,992.71
2019-04-03T00:55:17.504Z,992.73
2019-04-03T00:56:16.438Z,992.69
2019-04-03T00:57:15.253Z,992.67
2019-04-03T01:00:56.304Z,992.64
2019-04-03T01:01:56.442Z,992.62
2019-04-03T01:02:53.943Z,992.62
2019-04-03T01:03:52.719Z,992.62
2019-04-03T01:04:51.546Z,992.65
2019-04-03T01:05:50.849Z,992.62
2019-04-03T01:06:49.838Z,992.64
2019-04-03T01:07:48.809Z,992.59
2019-04-03T01:08:47.604Z,992.59
2019-04-03T01:09:46.622Z,992.61
2019-04-03T01:10:45.355Z,992.61
2019-04-03T01:11:44.372Z,992.6
2019-04-03T01:12:43.091Z,992.62
2019-04-03T01:19:50.860Z,992.59
2019-04-03T01:20:49.915Z,992.55
2019-04-03T01:21:48.681Z,992.58
2019-04-03T01:22:47.606Z,992.6
2019-04-03T01:23:46.575Z,992.53
2019-04-03T01:24:45.516Z,992.57
2019-04-03T01:28:28.326Z,992.57
2019-04-03T01:29:27.212Z,992.52
2019-04-03T01:30:26.082Z,992.55
2019-04-03T01:31:24.995Z,992.55
2019-04-03T01:32:23.896Z,992.58
2019-04-03T01:33:23.384Z,992.54
2019-04-03T01:34:22.072Z,992.52
2019-04-03T01:35:21.079Z,992.52
2019-04-03T01:38:01.271Z,992.41
2019-04-03T01:39:00.076Z,992.35
2019-04-03T01:39:59.029Z,992.36
2019-04-03T01:41:57.204Z,992.34
2019-04-03T01:44:56.087Z,992.29
2019-04-03T01:46:53.607Z,992.31
2019-04-03T01:47:52.723Z,992.26
2019-04-03T01:50:23.733Z,992.21
2019-04-03T01:53:04.159Z,992.19
2019-04-03T02:05:33.661Z,992.03
2019-04-03T02:06:32.851Z,992.04
2019-04-03T02:07:31.827Z,992.02
2019-04-03T02:08:30.635Z,992.03
2019-04-03T02:11:11.167Z,992.04
2019-04-03T02:12:10.250Z,991.95
2019-04-03T02:13:09.062Z,991.98
2019-04-03T02:15:24.365Z,991.96
2019-04-03T02:16:23.611Z,991.94
2019-04-03T02:17:23.858Z,992
2019-04-03T02:18:21.025Z,991.94
2019-04-03T02:19:19.818Z,991.89
2019-04-03T02:20:18.712Z,991.88
2019-04-03T02:21:17.655Z,991.83
2019-04-03T02:22:16.695Z,991.87
2019-04-03T02:23:15.537Z,991.89
2019-04-03T02:24:14.810Z,991.84
2019-04-03T02:25:13.772Z,991.87
2019-04-03T02:26:12.666Z,991.91
2019-04-03T02:27:11.494Z,991.9
2019-04-03T02:28:10.523Z,991.85
2019-04-03T02:29:09.413Z,991.87
2019-04-03T02:30:11.877Z,991.85
2019-04-03T02:31:07.405Z,991.84
2019-04-03T02:32:06.373Z,991.87
2019-04-03T02:33:05.183Z,991.92
2019-04-03T02:34:04.051Z,991.87
2019-04-03T02:35:06.384Z,991.8
2019-04-03T02:36:01.910Z,991.79
2019-04-03T02:37:01.089Z,991.79
2019-04-03T02:37:59.731Z,991.76
2019-04-03T02:38:58.547Z,991.74
2019-04-03T02:40:00.039Z,991.75
2019-04-03T02:40:56.386Z,991.72
2019-04-03T02:41:55.347Z,991.73
2019-04-03T02:42:54.060Z,991.71
2019-04-03T02:43:53.529Z,991.68
2019-04-03T02:44:52.429Z,991.7
2019-04-03T02:45:51.742Z,991.68
2019-04-03T02:46:50.367Z,991.62
2019-04-03T02:47:49.210Z,991.58
2019-04-03T02:48:48.237Z,991.6
2019-04-03T02:49:47.069Z,991.58
2019-04-03T02:50:47.522Z,991.54
2019-04-03T02:51:44.916Z,991.54
2019-04-03T02:52:43.967Z,991.55
2019-04-03T02:53:42.647Z,991.53
2019-04-03T02:54:41.574Z,991.56
2019-04-03T02:55:40.974Z,991.58
2019-04-03T02:56:39.390Z,991.57
2019-04-03T02:57:38.063Z,991.56
2019-04-03T02:58:36.854Z,991.6
2019-04-03T02:59:36.576Z,991.55
2019-04-03T03:00:35.341Z,991.6
2019-04-03T03:01:38.083Z,991.6
2019-04-03T03:02:33.592Z,991.6
2019-04-03T03:03:32.518Z,991.55
2019-04-03T03:04:31.738Z,991.52
2019-04-03T03:05:31.147Z,991.55
2019-04-03T03:06:32.710Z,991.51
2019-04-03T03:07:29.066Z,991.5
2019-04-03T03:08:27.841Z,991.51
2019-04-03T03:09:26.704Z,991.56
2019-04-03T03:10:25.567Z,991.57
2019-04-03T03:11:25.081Z,991.58
2019-04-03T03:12:24.896Z,991.59
2019-04-03T03:13:22.165Z,991.57
2019-04-03T03:14:20.995Z,991.52
2019-04-03T03:15:20.259Z,991.5
2019-04-03T03:16:18.961Z,991.51
2019-04-03T03:17:21.096Z,991.5
2019-04-03T03:18:16.634Z,991.51
2019-04-03T03:19:15.463Z,991.48
2019-04-03T03:20:14.367Z,991.42
2019-04-03T03:21:13.908Z,991.42
2019-04-03T03:22:12.523Z,991.39
2019-04-03T03:23:11.035Z,991.39
2019-04-03T03:24:09.962Z,991.42
2019-04-03T03:25:08.764Z,991.42
2019-04-03T03:26:07.635Z,991.41
2019-04-03T03:27:09.187Z,991.41
2019-04-03T03:28:05.250Z,991.44
2019-04-03T03:29:16.094Z,991.45
2019-04-03T03:30:18.885Z,991.44
2019-04-03T03:31:05.162Z,991.47
2019-04-03T03:32:10.578Z,991.47
2019-04-03T03:33:21.481Z,991.47
2019-04-03T03:34:01.882Z,991.49
2019-04-03T03:35:09.075Z,991.46
2019-04-03T03:35:56.671Z,991.49
2019-04-03T03:36:59.954Z,991.45
2019-04-03T03:37:55.128Z,991.44
2019-04-03T03:38:54.044Z,991.49
2019-04-03T03:39:52.848Z,991.42
2019-04-03T03:40:51.681Z,991.42
2019-04-03T03:41:50.654Z,991.41
2019-04-03T03:42:49.441Z,991.41
2019-04-03T03:43:48.836Z,991.38
2019-04-03T03:44:47.762Z,991.39
2019-04-03T03:45:46.520Z,991.45
2019-04-03T03:46:45.383Z,991.39
2019-04-03T03:47:44.412Z,991.4
2019-04-03T03:48:44.788Z,991.44
2019-04-03T03:49:41.795Z,991.41
2019-04-03T03:50:40.634Z,991.42
2019-04-03T03:51:39.523Z,991.34
2019-04-03T03:52:39.050Z,991.33
2019-04-03T03:53:37.844Z,991.29
2019-04-03T03:54:36.414Z,991.29
2019-04-03T03:55:35.561Z,991.29
2019-04-03T03:56:34.157Z,991.28
2019-04-03T03:57:33.395Z,991.25
2019-04-03T03:58:32.467Z,991.28
2019-04-03T03:59:31.224Z,991.21
2019-04-03T04:00:30.109Z,991.2
2019-04-03T04:02:34.209Z,991.15
2019-04-03T04:03:31.534Z,991.13
2019-04-03T04:04:30.562Z,991.15
2019-04-03T04:05:29.466Z,991.13
2019-04-03T04:06:34.829Z,991.13
2019-04-03T04:07:29.676Z,991.15
2019-04-03T04:08:28.591Z,991.18
2019-04-03T04:09:27.696Z,991.17
2019-04-03T04:10:26.652Z,991.14
2019-04-03T04:11:25.654Z,991.1
2019-04-03T04:12:25.254Z,991.13
2019-04-03T04:13:23.894Z,991.11
2019-04-03T04:14:23.454Z,991.03
2019-04-03T04:15:22.213Z,991.05
2019-04-03T04:16:21.164Z,991.05
2019-04-03T04:17:19.658Z,991.04
2019-04-03T04:18:22.261Z,991.02
2019-04-03T04:19:18.169Z,990.99
2019-04-03T04:20:17.032Z,990.97
2019-04-03T04:21:15.886Z,990.99
2019-04-03T04:22:16.301Z,991.02
2019-04-03T04:23:13.964Z,990.96
2019-04-03T04:24:12.716Z,991
2019-04-03T04:25:11.915Z,990.98
2019-04-03T04:26:10.745Z,990.98
2019-04-03T04:27:09.725Z,991.01
2019-04-03T04:28:09.928Z,990.98
2019-04-03T04:29:10.228Z,990.99
2019-04-03T04:30:07.842Z,990.99
2019-04-03T04:31:16.039Z,991.01
2019-04-03T04:32:15.336Z,991.03
2019-04-03T04:33:14.889Z,990.98
2019-04-03T04:34:12.420Z,990.98
2019-04-03T04:35:11.326Z,990.99
2019-04-03T04:37:36.171Z,990.86
2019-04-03T04:38:35.295Z,990.82
2019-04-03T04:39:34.055Z,990.84
2019-04-03T04:40:32.776Z,990.82
2019-04-03T04:41:32.544Z,990.81
2019-04-03T04:42:30.581Z,990.8
2019-04-03T04:43:29.373Z,990.83
2019-04-03T04:44:28.261Z,990.87
2019-04-03T04:45:27.094Z,990.86
2019-04-03T04:46:25.819Z,990.91
2019-04-03T04:49:06.376Z,990.88
2019-04-03T04:50:05.345Z,990.84
2019-04-03T04:51:04.161Z,990.89
2019-04-03T05:04:47.455Z,990.75
2019-04-03T05:05:46.872Z,990.74
2019-04-03T05:06:45.898Z,990.75
2019-04-03T05:07:45.481Z,990.71
2019-04-03T05:08:44.552Z,990.68
2019-04-03T05:09:43.373Z,990.74
2019-04-03T05:10:42.114Z,990.72
2019-04-03T05:11:40.981Z,990.8
2019-04-03T05:12:42.526Z,990.77
2019-04-03T05:13:38.714Z,990.78
2019-04-03T05:14:37.621Z,990.78
2019-04-03T05:15:36.505Z,990.76
2019-04-03T05:16:35.364Z,990.71
2019-04-03T05:17:34.471Z,990.73
2019-04-03T05:18:33.334Z,990.71
2019-04-03T05:19:32.484Z,990.7
2019-04-03T05:20:31.167Z,990.67
2019-04-03T05:21:30.090Z,990.65
2019-04-03T05:22:28.950Z,990.64
2019-04-03T05:23:27.847Z,990.59
2019-04-03T05:24:28.820Z,990.53
2019-04-03T05:25:25.844Z,990.56
2019-04-03T05:26:24.771Z,990.54
2019-04-03T05:27:24.479Z,990.56
2019-04-03T05:28:24.795Z,990.57
2019-04-03T05:29:22.238Z,990.59
2019-04-03T05:30:21.113Z,990.65
2019-04-03T05:31:20.025Z,990.66
2019-04-03T05:32:19.180Z,990.64
2019-04-03T05:33:17.951Z,990.69
2019-04-03T05:34:16.949Z,990.68
2019-04-03T05:35:15.952Z,990.65
2019-04-03T05:36:15.355Z,990.6
2019-04-03T05:37:13.678Z,990.59
2019-04-03T05:38:12.776Z,990.57
2019-04-03T05:39:11.629Z,990.59
2019-04-03T05:40:10.590Z,990.51
2019-04-03T05:41:09.722Z,990.58
2019-04-03T05:42:09.025Z,990.59
2019-04-03T05:43:07.674Z,990.58
2019-04-03T05:44:07.013Z,990.57
2019-04-03T05:45:05.956Z,990.56
2019-04-03T05:46:05.620Z,990.6
2019-04-03T05:47:03.844Z,990.59
2019-04-03T05:48:02.791Z,990.68
2019-04-03T05:49:01.608Z,990.62
2019-04-03T05:50:00.446Z,990.65
2019-04-03T05:50:59.407Z,990.68
2019-04-03T05:51:58.274Z,990.62
2019-04-03T05:52:57.107Z,990.64
2019-04-03T05:53:56.022Z,990.67
2019-04-03T05:54:54.882Z,990.63
2019-04-03T05:55:53.649Z,990.62
2019-04-03T05:56:52.527Z,990.68
2019-04-03T05:57:51.286Z,990.61
2019-04-03T05:58:55.862Z,990.6
2019-04-03T05:59:59.406Z,990.55
2019-04-03T06:00:48.607Z,990.53
2019-04-03T06:01:47.462Z,990.53
2019-04-03T06:02:46.427Z,990.5
2019-04-03T06:03:45.830Z,990.45
2019-04-03T06:04:44.333Z,990.5
2019-04-03T06:05:43.858Z,990.47
2019-04-03T06:06:41.958Z,990.47
2019-04-03T06:07:40.956Z,990.52
2019-04-03T06:08:39.713Z,990.55
2019-04-03T06:09:39.304Z,990.53
2019-04-03T06:10:38.175Z,990.6
2019-04-03T06:12:37.904Z,990.62
2019-04-03T06:13:36.824Z,990.61
2019-04-03T06:14:35.719Z,990.6
2019-04-03T06:15:34.637Z,990.59
2019-04-03T06:16:33.501Z,990.61
2019-04-03T06:17:32.441Z,990.58
2019-04-03T06:18:32.397Z,990.56
2019-04-03T06:19:30.402Z,990.53
2019-04-03T06:20:29.572Z,990.57
2019-04-03T06:21:28.213Z,990.6
2019-04-03T06:22:27.130Z,990.61
2019-04-03T06:23:25.981Z,990.58
2019-04-03T06:24:25.060Z,990.58
2019-04-03T06:25:24.004Z,990.56
2019-04-03T06:26:22.767Z,990.56
2019-04-03T06:27:21.607Z,990.53
2019-04-03T06:28:20.508Z,990.54
2019-04-03T06:29:19.644Z,990.56
2019-04-03T06:30:18.360Z,990.56
2019-04-03T06:31:17.062Z,990.51
2019-04-03T06:32:15.996Z,990.5
2019-04-03T06:33:14.965Z,990.48
2019-04-03T06:34:13.673Z,990.47
2019-04-03T06:35:13.616Z,990.43
2019-04-03T06:36:11.415Z,990.42
2019-04-03T06:37:11.208Z,990.47
2019-04-03T06:38:10.198Z,990.44
2019-04-03T06:39:09.116Z,990.41
2019-04-03T06:40:08.000Z,990.36
2019-04-03T06:41:09.075Z,990.32
2019-04-03T06:42:07.141Z,990.33
2019-04-03T06:43:06.298Z,990.31
2019-04-03T06:44:05.138Z,990.38
2019-04-03T06:45:03.867Z,990.34
2019-04-03T06:46:02.710Z,990.33
2019-04-03T06:47:01.744Z,990.31
2019-04-03T06:48:01.024Z,990.31
2019-04-03T06:48:59.619Z,990.25
2019-04-03T06:49:58.751Z,990.23
2019-04-03T06:50:57.404Z,990.22
2019-04-03T06:51:57.042Z,990.19
2019-04-03T06:55:28.388Z,990.27
2019-04-03T06:56:27.231Z,990.29
2019-04-03T06:57:26.055Z,990.29
2019-04-03T06:58:29.609Z,990.35
2019-04-03T06:59:23.960Z,990.33
2019-04-03T07:00:22.825Z,990.38
2019-04-03T07:01:21.660Z,990.34
2019-04-03T07:02:20.506Z,990.36
2019-04-03T07:03:21.958Z,990.35
2019-04-03T07:04:18.238Z,990.35
2019-04-03T07:05:17.056Z,990.38
2019-04-03T07:06:15.937Z,990.31
2019-04-03T07:07:15.978Z,990.38
2019-04-03T07:08:13.652Z,990.39
2019-04-03T07:09:22.327Z,990.43
2019-04-03T07:10:26.056Z,990.42
2019-04-03T07:11:25.054Z,990.43
2019-04-03T07:14:04.689Z,990.44
2019-04-03T07:15:13.731Z,990.46
2019-04-03T07:16:33.621Z,990.54
2019-04-03T07:18:05.205Z,990.45
2019-04-03T07:19:20.942Z,990.5
2019-04-03T07:21:12.680Z,990.5
2019-04-03T07:22:11.746Z,990.52
2019-04-03T07:23:10.616Z,990.52
2019-04-03T07:25:04.183Z,990.54
2019-04-03T07:26:05.139Z,990.51
2019-04-03T07:27:54.567Z,990.53
2019-04-03T07:29:44.626Z,990.52
2019-04-03T07:31:03.621Z,990.57
2019-04-03T07:32:12.575Z,990.54
2019-04-03T07:33:57.464Z,990.53
2019-04-03T07:35:14.906Z,990.51
2019-04-03T07:36:27.837Z,990.54
2019-04-03T07:38:25.690Z,990.53
2019-04-03T07:39:25.372Z,990.55
2019-04-03T07:40:34.480Z,990.64
2019-04-03T07:48:39.386Z,990.67
2019-04-03T07:49:40.224Z,990.64
2019-04-03T07:52:08.442Z,990.71
2019-04-03T07:57:11.908Z,990.83
2019-04-03T07:58:32.718Z,990.83
2019-04-03T07:59:42.964Z,990.86
2019-04-03T08:00:53.141Z,990.84
2019-04-03T08:03:59.677Z,990.83
2019-04-03T08:05:00.351Z,990.8
2019-04-03T08:07:39.715Z,990.91
2019-04-03T08:09:07.173Z,990.85
2019-04-03T08:12:09.692Z,990.77
2019-04-03T08:13:10.153Z,990.77
2019-04-03T08:14:09.937Z,990.81
2019-04-03T08:15:08.256Z,990.85
2019-04-03T08:16:07.828Z,990.82
2019-04-03T08:17:45.903Z,990.87
2019-04-03T08:19:26.498Z,990.92
2019-04-03T08:21:51.371Z,990.91
2019-04-03T08:26:19.092Z,990.93
2019-04-03T08:28:17.410Z,990.96
2019-04-03T08:30:57.965Z,990.96
2019-04-03T08:38:18.199Z,991
2019-04-03T08:40:37.974Z,991.1
2019-04-03T08:41:48.903Z,991.04
2019-04-03T08:45:29.519Z,991.09
2019-04-03T08:48:24.172Z,991.08
2019-04-03T08:51:08.317Z,991.03
2019-04-03T08:52:13.824Z,991.09
2019-04-03T08:56:20.239Z,991.12
2019-04-03T08:57:20.429Z,991.15
2019-04-03T09:06:43.396Z,991.19
2019-04-03T09:07:42.482Z,991.24
2019-04-03T09:11:49.170Z,991.25
2019-04-03T09:12:49.045Z,991.17
2019-04-03T09:19:34.313Z,991.21
2019-04-03T09:21:34.385Z,991.23
2019-04-03T09:24:15.506Z,991.27
2019-04-03T09:28:47.230Z,991.27
2019-04-03T09:31:21.908Z,991.36
2019-04-03T09:37:41.089Z,991.39
2019-04-03T09:42:34.152Z,991.47
2019-04-03T09:46:03.868Z,991.48
2019-04-03T09:47:10.175Z,991.53
2019-04-03T09:51:32.635Z,991.57
2019-04-03T09:54:28.261Z,991.53
2019-04-03T09:55:37.573Z,991.6
2019-04-03T09:56:56.042Z,991.58
2019-04-03T09:58:41.145Z,991.58
2019-04-03T10:00:09.479Z,991.55
2019-04-03T10:01:07.190Z,991.51
2019-04-03T10:03:34.037Z,991.4
2019-04-03T10:05:24.132Z,991.31
2019-04-03T10:06:41.138Z,991.32
2019-04-03T10:07:40.284Z,991.25
2019-04-03T10:11:27.350Z,991.13
2019-04-03T10:15:44.706Z,991.03
2019-04-03T10:17:51.921Z,991.06
2019-04-03T10:23:07.925Z,991.05
2019-04-03T10:31:46.134Z,990.86
2019-04-03T10:35:35.281Z,990.85
2019-04-03T10:39:51.724Z,990.81
2019-04-03T10:42:46.707Z,990.74
2019-04-03T10:45:54.323Z,990.68
2019-04-03T10:47:41.947Z,990.72
2019-04-03T10:49:36.514Z,990.68
2019-04-03T10:51:11.917Z,990.73
2019-04-03T10:52:18.626Z,990.66
2019-04-03T10:54:00.761Z,990.62
2019-04-03T10:55:32.975Z,990.68
2019-04-03T10:57:03.486Z,990.68
2019-04-03T10:58:30.627Z,990.63
2019-04-03T11:00:05.702Z,990.73
2019-04-03T11:01:13.312Z,990.72
2019-04-03T11:03:12.631Z,990.72
2019-04-03T11:04:52.937Z,990.68
2019-04-03T11:06:18.317Z,990.68
2019-04-03T11:07:26.713Z,990.72
2019-04-03T11:08:51.640Z,990.77
2019-04-03T11:10:25.236Z,990.69
2019-04-03T11:11:54.744Z,990.64
2019-04-03T11:13:14.380Z,990.62
2019-04-03T11:14:25.248Z,990.59
2019-04-03T11:15:46.928Z,990.64
2019-04-03T11:16:46.432Z,990.67
2019-04-03T11:17:59.767Z,990.68
2019-04-03T11:19:02.849Z,990.78
2019-04-03T11:19:57.951Z,990.71
2019-04-03T11:21:27.494Z,990.64
2019-04-03T11:22:26.172Z,990.63
2019-04-03T11:23:58.080Z,990.58
2019-04-03T11:25:26.455Z,990.52
2019-04-03T11:26:26.009Z,990.6
2019-04-03T11:27:53.174Z,990.6
2019-04-03T11:28:52.586Z,990.61
2019-04-03T11:31:38.319Z,990.62
2019-04-03T11:33:08.673Z,990.62
2019-04-03T11:37:20.877Z,990.55
2019-04-03T11:38:33.375Z,990.56
2019-04-03T11:39:34.225Z,990.52
2019-04-03T11:40:32.939Z,990.54
2019-04-03T11:41:39.821Z,990.57
2019-04-03T11:42:50.407Z,990.57
2019-04-03T11:44:13.141Z,990.56
2019-04-03T11:45:43.049Z,990.56
2019-04-03T11:46:43.745Z,990.55
2019-04-03T11:50:13.708Z,990.52
2019-04-03T11:51:33.910Z,990.54
2019-04-03T11:52:31.919Z,990.51
2019-04-03T11:53:30.809Z,990.49
2019-04-03T11:54:29.772Z,990.5
2019-04-03T11:55:28.879Z,990.53
2019-04-03T11:56:27.645Z,990.56
2019-04-03T11:57:27.741Z,990.53
2019-04-03T11:58:26.757Z,990.54
2019-04-03T11:59:25.930Z,990.54
2019-04-03T12:01:10.959Z,990.52
2019-04-03T12:02:10.081Z,990.49
2019-04-03T12:03:10.691Z,990.52
2019-04-03T12:04:07.928Z,990.54
2019-04-03T12:05:06.923Z,990.48
2019-04-03T12:06:05.710Z,990.46
2019-04-03T12:07:27.299Z,990.38
2019-04-03T12:08:37.027Z,990.3
2019-04-03T12:09:36.212Z,990.36
2019-04-03T12:12:25.362Z,990.39
2019-04-03T12:13:35.712Z,990.46
2019-04-03T12:14:51.360Z,990.45
2019-04-03T12:16:02.195Z,990.48
2019-04-03T12:17:10.946Z,990.5
2019-04-03T12:18:41.696Z,990.42
2019-04-03T12:20:52.938Z,990.33
2019-04-03T12:27:30.904Z,990.4
2019-04-03T12:29:00.923Z,990.42
2019-04-03T12:31:29.185Z,990.33
2019-04-03T12:32:42.840Z,990.29
2019-04-03T12:34:05.120Z,990.34
2019-04-03T12:35:05.510Z,990.36
2019-04-03T12:36:15.885Z,990.36
2019-04-03T12:37:18.340Z,990.29
2019-04-03T12:38:17.525Z,990.27
2019-04-03T12:40:17.227Z,990.27
2019-04-03T12:41:49.360Z,990.14
2019-04-03T12:43:07.811Z,990.15
2019-04-03T12:44:07.945Z,990.18
2019-04-03T12:45:20.547Z,990.18
2019-04-03T12:46:23.183Z,990.2
2019-04-03T12:49:19.956Z,990.19
2019-04-03T12:50:18.359Z,990.17
2019-04-03T12:51:25.397Z,990.16
2019-04-03T12:53:11.380Z,990.09
2019-04-03T12:55:08.066Z,990.02
2019-04-03T12:56:06.869Z,990.03
2019-04-03T12:57:32.948Z,989.92
2019-04-03T12:58:48.019Z,989.87
2019-04-03T13:00:35.970Z,989.78
2019-04-03T13:02:05.285Z,989.65
2019-04-03T13:03:16.739Z,989.63
2019-04-03T13:10:41.745Z,989.38
2019-04-03T13:14:39.518Z,989.38
2019-04-03T13:17:42.761Z,989.8
2019-04-03T13:18:57.407Z,989.98
2019-04-03T13:20:05.510Z,990
2019-04-03T13:24:58.496Z,989.9
2019-04-03T13:25:57.854Z,989.89
2019-04-03T13:27:05.585Z,989.78
2019-04-03T13:28:28.460Z,989.79
2019-04-03T13:32:35.044Z,989.79
2019-04-03T13:33:39.812Z,989.7
2019-04-03T13:35:04.117Z,989.73
2019-04-03T13:36:51.806Z,989.63
2019-04-03T13:39:36.112Z,989.51
2019-04-03T13:42:08.360Z,989.37
2019-04-03T13:45:59.026Z,989.28
2019-04-03T13:50:24.706Z,989.2
2019-04-03T13:51:51.764Z,989.12
2019-04-03T13:58:39.555Z,989.24
2019-04-03T14:01:29.360Z,989.26
2019-04-03T14:02:29.118Z,989.27
2019-04-03T14:05:26.468Z,989.27
2019-04-03T14:07:31.572Z,989.27
2019-04-03T14:09:53.168Z,989.33
2019-04-03T14:10:49.680Z,989.34
2019-04-03T14:11:50.191Z,989.36
2019-04-03T14:12:55.371Z,989.45
2019-04-03T14:14:53.583Z,989.47
2019-04-03T14:16:36.950Z,989.43
2019-04-03T14:17:56.291Z,989.42
2019-04-03T14:18:51.308Z,989.46
2019-04-03T14:21:35.951Z,989.34
2019-04-03T14:23:03.839Z,989.29
2019-04-03T14:24:16.077Z,989.28
2019-04-03T14:26:36.624Z,989.31
2019-04-03T14:28:43.200Z,989.23
2019-04-03T14:34:43.906Z,989.19
2019-04-03T14:36:13.602Z,989.15
2019-04-03T14:37:26.617Z,989.13
2019-04-03T14:39:45.899Z,989.21
2019-04-03T14:41:17.201Z,989.22
2019-04-03T14:43:01.318Z,989.3
2019-04-03T14:44:07.537Z,989.45
2019-04-03T14:45:24.897Z,989.52
2019-04-03T14:46:52.418Z,989.55
2019-04-03T14:48:21.541Z,989.51
2019-04-03T14:49:47.361Z,989.48
2019-04-03T14:50:49.679Z,989.57
2019-04-03T14:51:49.443Z,989.59
2019-04-03T14:52:49.464Z,989.66
2019-04-03T14:53:55.589Z,989.64
2019-04-03T14:56:38.385Z,989.61
2019-04-03T14:58:25.436Z,989.64
2019-04-03T15:02:05.080Z,989.54
2019-04-03T15:04:30.079Z,989.74
2019-04-03T15:07:35.646Z,989.75
2019-04-03T15:08:35.007Z,989.68
2019-04-03T15:09:35.125Z,989.66
2019-04-03T15:14:22.151Z,989.64
2019-04-03T15:18:19.152Z,989.6
2019-04-03T15:22:50.624Z,989.51
2019-04-03T15:24:02.122Z,989.55
2019-04-03T15:26:16.213Z,989.65
2019-04-03T15:27:52.094Z,989.68
2019-04-03T15:31:16.884Z,989.86
2019-04-03T15:32:18.571Z,989.83
2019-04-03T15:34:51.381Z,989.8
2019-04-03T15:37:46.373Z,990.08
2019-04-03T15:40:38.480Z,990.06
2019-04-03T15:42:55.232Z,990.03
2019-04-03T15:48:06.044Z,989.93
2019-04-03T15:49:11.473Z,989.87
2019-04-03T15:50:35.390Z,989.72
2019-04-03T15:52:21.755Z,989.6
2019-04-03T15:54:04.690Z,989.47
2019-04-03T15:55:51.150Z,989.46
2019-04-03T15:57:14.397Z,989.54
2019-04-03T15:58:52.123Z,989.59
2019-04-03T16:01:39.434Z,989.62
2019-04-03T16:03:09.898Z,989.7
2019-04-03T16:07:10.704Z,989.72
2019-04-03T16:08:23.305Z,989.78
2019-04-03T16:13:50.218Z,989.68
2019-04-03T16:14:54.535Z,989.64
2019-04-03T16:18:05.820Z,989.62
2019-04-03T16:20:39.127Z,989.87
2019-04-03T16:21:42.800Z,989.93
2019-04-03T16:24:13.238Z,989.88
2019-04-03T16:29:57.251Z,989.7
2019-04-03T16:30:57.020Z,989.72
2019-04-03T16:33:36.887Z,989.77
2019-04-03T16:37:56.411Z,989.73
2019-04-03T16:40:53.263Z,989.71
2019-04-03T16:43:47.579Z,989.61
2019-04-03T16:45:25.965Z,989.64
2019-04-03T16:48:04.541Z,989.58
2019-04-03T16:49:56.096Z,989.6
2019-04-03T16:54:21.246Z,989.87
2019-04-03T16:56:18.230Z,989.89
2019-04-03T16:57:29.008Z,989.93
2019-04-03T16:59:11.707Z,989.91
2019-04-03T17:01:17.879Z,989.98
2019-04-03T17:03:18.004Z,990
2019-04-03T17:04:55.233Z,989.98
2019-04-03T17:06:15.737Z,989.88
2019-04-03T17:08:58.592Z,989.66
2019-04-03T17:10:21.399Z,989.66
2019-04-03T17:12:12.755Z,989.73
2019-04-03T17:14:25.090Z,989.87
2019-04-03T17:15:41.329Z,989.96
2019-04-03T17:17:14.288Z,990.07
2019-04-03T17:19:32.213Z,990.1
2019-04-03T17:21:03.930Z,990.12
2019-04-03T17:22:20.081Z,990.05
2019-04-03T17:23:27.037Z,989.95
2019-04-03T17:24:40.704Z,989.89
2019-04-03T17:25:59.642Z,989.9
2019-04-03T17:28:27.302Z,989.78
2019-04-03T17:30:07.047Z,989.67
2019-04-03T17:32:07.077Z,989.56
2019-04-03T17:33:18.263Z,989.71
2019-04-03T17:34:26.340Z,989.76
2019-04-03T17:35:46.728Z,989.84
2019-04-03T17:36:52.301Z,989.83
2019-04-03T17:38:20.424Z,989.84
2019-04-03T17:39:19.543Z,989.81
2019-04-03T17:40:18.582Z,989.72
2019-04-03T17:41:20.903Z,989.68
2019-04-03T17:42:31.949Z,989.66
2019-04-03T17:46:04.967Z,989.6
2019-04-03T17:48:41.733Z,989.63
2019-04-03T17:49:59.025Z,989.66
2019-04-03T17:55:25.440Z,989.69
2019-04-03T17:56:42.957Z,989.84
2019-04-03T18:00:13.162Z,990.05
2019-04-03T18:04:28.199Z,989.88
2019-04-03T18:10:36.656Z,989.93
2019-04-03T18:11:47.350Z,989.93
2019-04-03T18:18:57.259Z,989.75
2019-04-03T18:22:44.703Z,989.74
2019-04-03T18:27:20.845Z,989.73
2019-04-03T18:29:48.089Z,989.74
2019-04-03T18:33:33.922Z,989.76
2019-04-03T18:39:28.137Z,989.67
2019-04-03T18:41:35.215Z,989.75
2019-04-03T18:44:47.924Z,989.69
2019-04-03T18:46:13.500Z,989.69
2019-04-03T18:49:55.298Z,989.66
2019-04-03T18:51:55.425Z,989.56
2019-04-03T18:53:50.893Z,989.58
2019-04-03T18:56:39.399Z,989.57
2019-04-03T18:59:05.314Z,989.6
2019-04-03T19:03:29.081Z,989.74
2019-04-03T19:06:13.563Z,989.8
2019-04-03T19:07:19.998Z,989.84
2019-04-03T19:13:07.641Z,989.84
2019-04-03T19:19:40.256Z,989.86
2019-04-03T19:20:39.781Z,989.9
2019-04-03T19:21:38.661Z,989.91
2019-04-03T19:22:37.947Z,989.99
2019-04-03T19:23:48.868Z,990.06
2019-04-03T19:26:17.572Z,990.07
2019-04-03T19:28:58.772Z,989.97
2019-04-03T19:29:57.434Z,990.01
2019-04-03T19:30:56.197Z,989.97
2019-04-03T19:55:24.915Z,989.97
2019-04-03T19:56:25.587Z,990.01
2019-04-03T19:57:22.550Z,989.97
2019-04-03T19:58:21.242Z,989.92
2019-04-03T19:59:19.965Z,989.9
2019-04-03T20:00:18.581Z,989.81
2019-04-03T20:01:17.260Z,989.67
2019-04-03T20:02:15.904Z,989.65
2019-04-03T20:03:14.768Z,989.68
2019-04-03T20:04:15.663Z,989.71
2019-04-03T20:05:12.132Z,989.69
2019-04-03T20:06:11.032Z,989.75
2019-04-03T20:07:09.550Z,989.73
2019-04-03T20:08:08.580Z,989.72
2019-04-03T20:09:07.145Z,989.7
2019-04-03T20:10:05.750Z,989.71
2019-04-03T20:11:05.050Z,989.67
2019-04-03T20:12:06.678Z,989.69
2019-04-03T20:13:02.054Z,989.71
2019-04-03T20:14:00.651Z,989.72
2019-04-03T20:16:41.398Z,989.82
2019-04-03T20:17:40.023Z,989.91
2019-04-03T20:18:38.633Z,989.9
2019-04-03T20:19:37.330Z,989.86
2019-04-03T20:20:36.209Z,989.86
2019-04-03T20:21:35.869Z,989.91
2019-04-03T20:22:33.589Z,989.88
2019-04-03T20:23:32.245Z,989.84
2019-04-03T20:24:31.174Z,989.82
2019-04-03T20:25:29.786Z,989.8
2019-04-03T20:26:28.663Z,989.75
2019-04-03T20:27:27.359Z,989.71
2019-04-03T20:28:25.895Z,989.63
2019-04-03T20:29:27.410Z,989.62
2019-04-03T20:30:23.336Z,989.59
2019-04-03T20:32:46.195Z,989.58
2019-04-03T20:33:44.877Z,989.56
2019-04-03T20:34:45.049Z,989.57
2019-04-03T20:35:42.100Z,989.58